Rohrsburg, Pennsylvania
Current Conditions -  °F | °C
As of 10:55 AM on Tuesday 21 Oct 2014 (Local Time) from KHZL Reporting Station
Overcast Overcast  
Wind Chill: 55°   Ceiling: 1100
Heat Index: 55°   Visibility: 10mi
Dew Point: 48°   Wind: 5mph
Humidity: 77%   Direction: 140°SE
Pressure: 29.9"   Gusts: NA
Location:  41.1114°N, 76.3684°W
Report Text: KHZL 211455Z AUTO 14004KT 10SM BKN011 BKN031 OVC070 13/09 A2990 RMK AO2
Loading
Personal Weather Stations






























Interactive Weather Map
Tropical Storm Tracking
New forecast layout! Learn more

10-Day Weather Forecast

Advertisements
Track Severe Weather on mobile